sensor_id;sensor_type;location;lat;lon;timestamp;P1;durP1;ratioP1;P2;durP2;ratioP2
26253;SDS011;53339;51.378;0.094;2023-07-31T00:01:27;14.48;;;3.22;;
26253;SDS011;53339;51.378;0.094;2023-07-31T00:04:00;7.65;;;2.95;;
26253;SDS011;53339;51.378;0.094;2023-07-31T00:06:33;9.85;;;2.50;;
26253;SDS011;53339;51.378;0.094;2023-07-31T00:09:08;12.93;;;3.55;;
26253;SDS011;53339;51.378;0.094;2023-07-31T00:11:39;10.98;;;3.50;;
26253;SDS011;53339;51.378;0.094;2023-07-31T00:14:07;10.07;;;2.95;;
26253;SDS011;53339;51.378;0.094;2023-07-31T00:16:40;12.60;;;2.83;;
26253;SDS011;53339;51.378;0.094;2023-07-31T00:19:20;6.10;;;2.72;;
26253;SDS011;53339;51.378;0.094;2023-07-31T00:21:52;7.03;;;2.63;;
26253;SDS011;53339;51.378;0.094;2023-07-31T00:24:21;6.93;;;2.67;;
26253;SDS011;53339;51.378;0.094;2023-07-31T00:26:55;7.72;;;3.00;;
26253;SDS011;53339;51.378;0.094;2023-07-31T00:29:27;6.72;;;2.45;;
26253;SDS011;53339;51.378;0.094;2023-07-31T00:32:00;4.45;;;1.92;;
26253;SDS011;53339;51.378;0.094;2023-07-31T00:34:39;4.68;;;1.75;;
26253;SDS011;53339;51.378;0.094;2023-07-31T00:37:10;4.28;;;1.95;;
26253;SDS011;53339;51.378;0.094;2023-07-31T00:39:43;5.13;;;1.95;;
26253;SDS011;53339;51.378;0.094;2023-07-31T00:42:22;5.47;;;1.80;;
26253;SDS011;53339;51.378;0.094;2023-07-31T00:45:02;5.97;;;2.38;;
26253;SDS011;53339;51.378;0.094;2023-07-31T00:47:34;4.10;;;1.50;;
26253;SDS011;53339;51.378;0.094;2023-07-31T00:50:03;3.35;;;1.40;;
26253;SDS011;53339;51.378;0.094;2023-07-31T00:52:35;3.63;;;1.30;;
26253;SDS011;53339;51.378;0.094;2023-07-31T00:55:05;5.68;;;1.77;;
26253;SDS011;53339;51.378;0.094;2023-07-31T00:57:56;4.10;;;1.92;;
26253;SDS011;53339;51.378;0.094;2023-07-31T01:00:25;5.28;;;1.65;;
26253;SDS011;53339;51.378;0.094;2023-07-31T01:02:54;2.65;;;1.35;;
26253;SDS011;53339;51.378;0.094;2023-07-31T01:05:49;3.67;;;1.25;;
26253;SDS011;53339;51.378;0.094;2023-07-31T01:08:44;3.00;;;1.20;;
26253;SDS011;53339;51.378;0.094;2023-07-31T01:11:27;2.65;;;1.27;;
26253;SDS011;53339;51.378;0.094;2023-07-31T01:14:01;2.55;;;1.13;;
26253;SDS011;53339;51.378;0.094;2023-07-31T01:16:36;2.10;;;1.00;;
26253;SDS011;53339;51.378;0.094;2023-07-31T01:19:14;1.85;;;1.30;;
26253;SDS011;53339;51.378;0.094;2023-07-31T01:27:59;3.90;;;1.77;;
26253;SDS011;53339;51.378;0.094;2023-07-31T01:30:37;2.83;;;1.50;;
26253;SDS011;53339;51.378;0.094;2023-07-31T01:33:16;2.38;;;1.45;;
26253;SDS011;53339;51.378;0.094;2023-07-31T01:35:52;3.25;;;1.00;;
26253;SDS011;53339;51.378;0.094;2023-07-31T01:38:22;4.15;;;1.42;;
26253;SDS011;53339;51.378;0.094;2023-07-31T01:43:22;3.30;;;1.77;;
26253;SDS011;53339;51.378;0.094;2023-07-31T01:45:54;1.48;;;1.00;;
26253;SDS011;53339;51.378;0.094;2023-07-31T01:48:26;1.98;;;1.05;;
26253;SDS011;53339;51.378;0.094;2023-07-31T01:50:54;2.63;;;1.58;;
26253;SDS011;53339;51.378;0.094;2023-07-31T01:53:25;1.92;;;1.20;;
26253;SDS011;53339;51.378;0.094;2023-07-31T01:55:57;3.30;;;1.30;;
26253;SDS011;53339;51.378;0.094;2023-07-31T01:58:26;2.78;;;1.25;;
26253;SDS011;53339;51.378;0.094;2023-07-31T02:01:00;3.67;;;1.45;;
26253;SDS011;53339;51.378;0.094;2023-07-31T02:03:39;2.75;;;1.65;;
26253;SDS011;53339;51.378;0.094;2023-07-31T02:06:26;3.72;;;1.85;;
26253;SDS011;53339;51.378;0.094;2023-07-31T02:08:59;3.97;;;2.03;;
26253;SDS011;53339;51.378;0.094;2023-07-31T02:11:33;3.50;;;1.40;;
26253;SDS011;53339;51.378;0.094;2023-07-31T02:14:02;3.00;;;1.27;;
26253;SDS011;53339;51.378;0.094;2023-07-31T02:16:38;4.30;;;1.63;;
26253;SDS011;53339;51.378;0.094;2023-07-31T02:19:15;4.93;;;1.60;;
26253;SDS011;53339;51.378;0.094;2023-07-31T02:21:51;4.45;;;1.75;;
26253;SDS011;53339;51.378;0.094;2023-07-31T02:24:23;3.47;;;1.58;;
26253;SDS011;53339;51.378;0.094;2023-07-31T02:26:55;3.40;;;1.52;;
26253;SDS011;53339;51.378;0.094;2023-07-31T02:29:26;3.13;;;1.60;;
26253;SDS011;53339;51.378;0.094;2023-07-31T02:31:59;3.85;;;1.45;;
26253;SDS011;53339;51.378;0.094;2023-07-31T02:34:38;4.28;;;1.95;;
26253;SDS011;53339;51.378;0.094;2023-07-31T02:37:13;5.35;;;2.00;;
26253;SDS011;53339;51.378;0.094;2023-07-31T02:39:45;4.28;;;1.70;;
26253;SDS011;53339;51.378;0.094;2023-07-31T02:42:14;2.13;;;1.13;;
26253;SDS011;53339;51.378;0.094;2023-07-31T02:44:44;2.22;;;1.33;;
26253;SDS011;53339;51.378;0.094;2023-07-31T02:47:17;2.65;;;1.23;;
26253;SDS011;53339;51.378;0.094;2023-07-31T02:49:56;4.43;;;1.58;;
26253;SDS011;53339;51.378;0.094;2023-07-31T02:52:37;3.55;;;1.30;;
26253;SDS011;53339;51.378;0.094;2023-07-31T02:55:06;3.55;;;1.27;;
26253;SDS011;53339;51.378;0.094;2023-07-31T02:57:35;2.15;;;1.10;;
26253;SDS011;53339;51.378;0.094;2023-07-31T03:00:07;3.92;;;1.48;;
26253;SDS011;53339;51.378;0.094;2023-07-31T03:02:39;4.50;;;2.00;;
26253;SDS011;53339;51.378;0.094;2023-07-31T03:05:16;4.75;;;1.63;;
26253;SDS011;53339;51.378;0.094;2023-07-31T03:07:50;2.60;;;1.35;;
26253;SDS011;53339;51.378;0.094;2023-07-31T03:10:27;4.25;;;1.58;;
26253;SDS011;53339;51.378;0.094;2023-07-31T03:12:58;6.28;;;1.60;;
26253;SDS011;53339;51.378;0.094;2023-07-31T03:15:28;3.55;;;1.45;;
26253;SDS011;53339;51.378;0.094;2023-07-31T03:17:58;3.30;;;1.33;;
26253;SDS011;53339;51.378;0.094;2023-07-31T03:20:31;4.47;;;1.42;;
26253;SDS011;53339;51.378;0.094;2023-07-31T03:23:11;4.13;;;1.58;;
26253;SDS011;53339;51.378;0.094;2023-07-31T03:26:02;3.33;;;1.20;;
26253;SDS011;53339;51.378;0.094;2023-07-31T03:28:33;3.38;;;1.35;;
26253;SDS011;53339;51.378;0.094;2023-07-31T03:31:08;4.95;;;1.33;;
26253;SDS011;53339;51.378;0.094;2023-07-31T03:33:46;4.63;;;1.70;;
26253;SDS011;53339;51.378;0.094;2023-07-31T03:36:22;3.08;;;1.25;;
26253;SDS011;53339;51.378;0.094;2023-07-31T03:39:05;4.30;;;1.40;;
26253;SDS011;53339;51.378;0.094;2023-07-31T03:41:46;3.33;;;1.40;;
26253;SDS011;53339;51.378;0.094;2023-07-31T03:44:29;3.35;;;1.25;;
26253;SDS011;53339;51.378;0.094;2023-07-31T03:46:59;3.88;;;1.30;;
26253;SDS011;53339;51.378;0.094;2023-07-31T03:49:31;3.40;;;1.15;;
26253;SDS011;53339;51.378;0.094;2023-07-31T03:51:59;5.78;;;1.40;;
26253;SDS011;53339;51.378;0.094;2023-07-31T03:54:28;3.35;;;1.23;;
26253;SDS011;53339;51.378;0.094;2023-07-31T03:56:56;2.45;;;1.35;;
26253;SDS011;53339;51.378;0.094;2023-07-31T03:59:27;3.42;;;1.60;;
26253;SDS011;53339;51.378;0.094;2023-07-31T04:04:39;5.55;;;1.30;;
26253;SDS011;53339;51.378;0.094;2023-07-31T04:07:13;4.00;;;1.63;;
26253;SDS011;53339;51.378;0.094;2023-07-31T04:09:45;3.00;;;1.20;;
26253;SDS011;53339;51.378;0.094;2023-07-31T04:12:18;2.58;;;1.17;;
26253;SDS011;53339;51.378;0.094;2023-07-31T04:14:47;4.90;;;1.60;;
26253;SDS011;53339;51.378;0.094;2023-07-31T04:17:18;3.78;;;1.55;;
26253;SDS011;53339;51.378;0.094;2023-07-31T04:19:55;3.33;;;1.70;;
26253;SDS011;53339;51.378;0.094;2023-07-31T04:22:29;3.33;;;2.08;;
26253;SDS011;53339;51.378;0.094;2023-07-31T04:25:11;3.45;;;2.10;;
26253;SDS011;53339;51.378;0.094;2023-07-31T04:27:42;3.53;;;1.27;;
26253;SDS011;53339;51.378;0.094;2023-07-31T04:30:11;3.58;;;1.27;;
26253;SDS011;53339;51.378;0.094;2023-07-31T04:32:42;2.53;;;1.63;;
26253;SDS011;53339;51.378;0.094;2023-07-31T04:35:17;2.92;;;1.85;;
26253;SDS011;53339;51.378;0.094;2023-07-31T04:37:47;3.67;;;1.63;;
26253;SDS011;53339;51.378;0.094;2023-07-31T04:40:27;2.65;;;1.23;;
26253;SDS011;53339;51.378;0.094;2023-07-31T04:43:03;4.63;;;1.58;;
26253;SDS011;53339;51.378;0.094;2023-07-31T04:45:38;3.28;;;1.75;;
26253;SDS011;53339;51.378;0.094;2023-07-31T04:48:10;4.57;;;1.60;;
26253;SDS011;53339;51.378;0.094;2023-07-31T04:50:44;2.30;;;1.55;;
26253;SDS011;53339;51.378;0.094;2023-07-31T04:53:22;3.15;;;1.50;;
26253;SDS011;53339;51.378;0.094;2023-07-31T04:55:55;3.63;;;2.05;;
26253;SDS011;53339;51.378;0.094;2023-07-31T04:58:30;3.03;;;1.77;;
26253;SDS011;53339;51.378;0.094;2023-07-31T05:01:07;4.68;;;1.40;;
26253;SDS011;53339;51.378;0.094;2023-07-31T05:03:38;3.00;;;1.52;;
26253;SDS011;53339;51.378;0.094;2023-07-31T05:06:10;3.60;;;1.80;;
26253;SDS011;53339;51.378;0.094;2023-07-31T05:08:49;3.22;;;1.75;;
26253;SDS011;53339;51.378;0.094;2023-07-31T05:11:18;3.33;;;1.58;;
26253;SDS011;53339;51.378;0.094;2023-07-31T05:13:49;4.03;;;1.75;;
26253;SDS011;53339;51.378;0.094;2023-07-31T05:16:17;4.03;;;1.85;;
26253;SDS011;53339;51.378;0.094;2023-07-31T05:18:50;3.55;;;1.60;;
26253;SDS011;53339;51.378;0.094;2023-07-31T05:21:22;3.63;;;1.83;;
26253;SDS011;53339;51.378;0.094;2023-07-31T05:23:54;2.33;;;1.35;;
26253;SDS011;53339;51.378;0.094;2023-07-31T05:26:32;3.33;;;1.67;;
26253;SDS011;53339;51.378;0.094;2023-07-31T05:29:01;4.10;;;1.40;;
26253;SDS011;53339;51.378;0.094;2023-07-31T05:31:30;4.55;;;1.60;;
26253;SDS011;53339;51.378;0.094;2023-07-31T05:34:03;4.60;;;1.40;;
26253;SDS011;53339;51.378;0.094;2023-07-31T05:36:31;3.88;;;1.88;;
26253;SDS011;53339;51.378;0.094;2023-07-31T05:38:59;3.70;;;2.05;;
26253;SDS011;53339;51.378;0.094;2023-07-31T05:41:27;3.10;;;1.58;;
26253;SDS011;53339;51.378;0.094;2023-07-31T05:44:02;4.75;;;1.85;;
26253;SDS011;53339;51.378;0.094;2023-07-31T05:46:32;3.00;;;1.73;;
26253;SDS011;53339;51.378;0.094;2023-07-31T05:49:12;4.15;;;1.75;;
26253;SDS011;53339;51.378;0.094;2023-07-31T05:51:41;3.38;;;1.65;;
26253;SDS011;53339;51.378;0.094;2023-07-31T05:54:10;4.97;;;1.95;;
26253;SDS011;53339;51.378;0.094;2023-07-31T05:56:39;2.50;;;1.40;;
26253;SDS011;53339;51.378;0.094;2023-07-31T05:59:17;3.72;;;2.40;;
26253;SDS011;53339;51.378;0.094;2023-07-31T06:01:48;2.75;;;1.42;;
26253;SDS011;53339;51.378;0.094;2023-07-31T06:04:19;3.33;;;1.02;;
26253;SDS011;53339;51.378;0.094;2023-07-31T06:06:54;3.72;;;1.80;;
26253;SDS011;53339;51.378;0.094;2023-07-31T06:09:28;4.55;;;1.50;;
26253;SDS011;53339;51.378;0.094;2023-07-31T06:11:59;3.63;;;1.63;;
26253;SDS011;53339;51.378;0.094;2023-07-31T06:14:33;5.45;;;1.48;;
26253;SDS011;53339;51.378;0.094;2023-07-31T06:19:40;4.45;;;1.70;;
26253;SDS011;53339;51.378;0.094;2023-07-31T06:22:10;3.45;;;1.65;;
26253;SDS011;53339;51.378;0.094;2023-07-31T06:24:40;4.57;;;1.50;;
26253;SDS011;53339;51.378;0.094;2023-07-31T06:27:18;4.15;;;1.77;;
26253;SDS011;53339;51.378;0.094;2023-07-31T06:29:50;3.40;;;1.63;;
26253;SDS011;53339;51.378;0.094;2023-07-31T06:32:27;3.50;;;1.45;;
26253;SDS011;53339;51.378;0.094;2023-07-31T06:35:02;3.60;;;1.20;;
26253;SDS011;53339;51.378;0.094;2023-07-31T06:37:31;6.53;;;1.75;;
26253;SDS011;53339;51.378;0.094;2023-07-31T06:40:22;7.85;;;2.08;;
26253;SDS011;53339;51.378;0.094;2023-07-31T06:42:52;4.78;;;2.35;;
26253;SDS011;53339;51.378;0.094;2023-07-31T06:45:24;5.28;;;1.83;;
26253;SDS011;53339;51.378;0.094;2023-07-31T06:47:53;4.32;;;1.70;;
26253;SDS011;53339;51.378;0.094;2023-07-31T06:50:21;3.40;;;1.50;;
26253;SDS011;53339;51.378;0.094;2023-07-31T06:52:49;3.17;;;1.77;;
26253;SDS011;53339;51.378;0.094;2023-07-31T06:55:19;4.55;;;1.90;;
26253;SDS011;53339;51.378;0.094;2023-07-31T06:57:50;6.57;;;1.50;;
26253;SDS011;53339;51.378;0.094;2023-07-31T07:00:24;5.60;;;1.50;;
26253;SDS011;53339;51.378;0.094;2023-07-31T07:02:53;5.63;;;1.67;;
26253;SDS011;53339;51.378;0.094;2023-07-31T07:05:23;4.07;;;1.50;;
26253;SDS011;53339;51.378;0.094;2023-07-31T07:07:52;3.40;;;1.92;;
26253;SDS011;53339;51.378;0.094;2023-07-31T07:10:20;5.25;;;1.52;;
26253;SDS011;53339;51.378;0.094;2023-07-31T07:12:53;4.05;;;1.70;;
26253;SDS011;53339;51.378;0.094;2023-07-31T07:15:23;3.33;;;1.60;;
26253;SDS011;53339;51.378;0.094;2023-07-31T07:17:56;4.45;;;2.00;;
26253;SDS011;53339;51.378;0.094;2023-07-31T07:20:25;3.97;;;1.73;;
26253;SDS011;53339;51.378;0.094;2023-07-31T07:22:56;3.20;;;1.30;;
26253;SDS011;53339;51.378;0.094;2023-07-31T07:25:27;3.33;;;1.88;;
26253;SDS011;53339;51.378;0.094;2023-07-31T07:28:04;4.13;;;1.52;;
26253;SDS011;53339;51.378;0.094;2023-07-31T07:31:07;3.90;;;1.90;;
26253;SDS011;53339;51.378;0.094;2023-07-31T07:34:01;4.72;;;1.75;;
26253;SDS011;53339;51.378;0.094;2023-07-31T07:36:31;5.32;;;2.08;;
26253;SDS011;53339;51.378;0.094;2023-07-31T07:39:05;4.05;;;1.80;;
26253;SDS011;53339;51.378;0.094;2023-07-31T07:41:35;3.28;;;1.70;;
26253;SDS011;53339;51.378;0.094;2023-07-31T07:44:05;7.25;;;1.92;;
26253;SDS011;53339;51.378;0.094;2023-07-31T07:46:33;4.30;;;2.13;;
26253;SDS011;53339;51.378;0.094;2023-07-31T07:49:06;5.30;;;1.63;;
26253;SDS011;53339;51.378;0.094;2023-07-31T07:51:35;3.47;;;1.80;;
26253;SDS011;53339;51.378;0.094;2023-07-31T07:54:03;5.35;;;2.10;;
26253;SDS011;53339;51.378;0.094;2023-07-31T07:56:32;4.22;;;1.77;;
26253;SDS011;53339;51.378;0.094;2023-07-31T07:59:04;4.95;;;1.90;;
26253;SDS011;53339;51.378;0.094;2023-07-31T08:01:36;5.07;;;2.28;;
26253;SDS011;53339;51.378;0.094;2023-07-31T08:04:04;4.03;;;1.85;;
26253;SDS011;53339;51.378;0.094;2023-07-31T08:06:33;2.88;;;1.45;;
26253;SDS011;53339;51.378;0.094;2023-07-31T08:09:20;3.75;;;2.00;;
26253;SDS011;53339;51.378;0.094;2023-07-31T08:11:51;6.20;;;2.22;;
26253;SDS011;53339;51.378;0.094;2023-07-31T08:14:21;4.75;;;1.92;;
26253;SDS011;53339;51.378;0.094;2023-07-31T08:16:51;4.75;;;2.20;;
26253;SDS011;53339;51.378;0.094;2023-07-31T08:19:19;6.57;;;2.85;;
26253;SDS011;53339;51.378;0.094;2023-07-31T08:21:48;3.53;;;2.22;;
26253;SDS011;53339;51.378;0.094;2023-07-31T08:24:21;4.20;;;1.95;;
26253;SDS011;53339;51.378;0.094;2023-07-31T08:26:50;4.07;;;2.17;;
26253;SDS011;53339;51.378;0.094;2023-07-31T08:29:19;9.02;;;2.55;;
26253;SDS011;53339;51.378;0.094;2023-07-31T08:31:48;5.72;;;1.85;;
26253;SDS011;53339;51.378;0.094;2023-07-31T08:34:19;5.28;;;2.10;;
26253;SDS011;53339;51.378;0.094;2023-07-31T08:36:47;6.20;;;2.20;;
26253;SDS011;53339;51.378;0.094;2023-07-31T08:39:15;4.03;;;1.73;;
26253;SDS011;53339;51.378;0.094;2023-07-31T08:41:47;4.60;;;2.10;;
26253;SDS011;53339;51.378;0.094;2023-07-31T08:44:15;3.60;;;1.63;;
26253;SDS011;53339;51.378;0.094;2023-07-31T08:46:46;3.10;;;1.58;;
26253;SDS011;53339;51.378;0.094;2023-07-31T08:49:16;4.85;;;2.25;;
26253;SDS011;53339;51.378;0.094;2023-07-31T08:51:51;4.63;;;1.90;;
26253;SDS011;53339;51.378;0.094;2023-07-31T08:54:25;5.63;;;2.40;;
26253;SDS011;53339;51.378;0.094;2023-07-31T08:57:04;4.03;;;1.73;;
26253;SDS011;53339;51.378;0.094;2023-07-31T08:59:35;4.53;;;2.00;;
26253;SDS011;53339;51.378;0.094;2023-07-31T09:02:07;4.78;;;1.98;;
26253;SDS011;53339;51.378;0.094;2023-07-31T09:04:36;3.40;;;1.98;;
26253;SDS011;53339;51.378;0.094;2023-07-31T09:07:09;2.55;;;1.63;;
26253;SDS011;53339;51.378;0.094;2023-07-31T09:09:44;3.45;;;1.98;;
26253;SDS011;53339;51.378;0.094;2023-07-31T09:12:16;3.72;;;2.08;;
26253;SDS011;53339;51.378;0.094;2023-07-31T09:14:44;2.60;;;1.35;;
26253;SDS011;53339;51.378;0.094;2023-07-31T09:17:14;2.63;;;1.42;;
26253;SDS011;53339;51.378;0.094;2023-07-31T09:19:43;3.67;;;1.40;;
26253;SDS011;53339;51.378;0.094;2023-07-31T09:22:16;2.92;;;1.40;;
26253;SDS011;53339;51.378;0.094;2023-07-31T09:24:47;3.25;;;1.55;;
26253;SDS011;53339;51.378;0.094;2023-07-31T09:27:16;3.25;;;1.48;;
26253;SDS011;53339;51.378;0.094;2023-07-31T09:29:44;3.45;;;1.40;;
26253;SDS011;53339;51.378;0.094;2023-07-31T09:32:15;3.55;;;1.50;;
26253;SDS011;53339;51.378;0.094;2023-07-31T09:34:44;2.47;;;1.40;;
26253;SDS011;53339;51.378;0.094;2023-07-31T09:37:12;2.65;;;1.42;;
26253;SDS011;53339;51.378;0.094;2023-07-31T09:39:45;2.20;;;1.15;;
26253;SDS011;53339;51.378;0.094;2023-07-31T09:42:25;2.63;;;1.20;;
26253;SDS011;53339;51.378;0.094;2023-07-31T09:45:01;2.80;;;1.67;;
26253;SDS011;53339;51.378;0.094;2023-07-31T09:47:46;2.40;;;1.63;;
26253;SDS011;53339;51.378;0.094;2023-07-31T09:50:23;3.20;;;1.30;;
26253;SDS011;53339;51.378;0.094;2023-07-31T09:52:54;3.35;;;1.30;;
26253;SDS011;53339;51.378;0.094;2023-07-31T09:55:23;3.67;;;1.38;;
26253;SDS011;53339;51.378;0.094;2023-07-31T09:57:52;3.63;;;1.45;;
26253;SDS011;53339;51.378;0.094;2023-07-31T10:00:26;3.83;;;1.52;;
26253;SDS011;53339;51.378;0.094;2023-07-31T10:03:01;3.47;;;1.67;;
26253;SDS011;53339;51.378;0.094;2023-07-31T10:05:45;4.53;;;1.70;;
26253;SDS011;53339;51.378;0.094;2023-07-31T10:08:23;1.88;;;1.08;;
26253;SDS011;53339;51.378;0.094;2023-07-31T10:10:59;2.65;;;1.38;;
26253;SDS011;53339;51.378;0.094;2023-07-31T10:13:33;3.42;;;1.15;;
26253;SDS011;53339;51.378;0.094;2023-07-31T10:16:03;2.55;;;1.42;;
26253;SDS011;53339;51.378;0.094;2023-07-31T10:21:05;4.20;;;1.67;;
26253;SDS011;53339;51.378;0.094;2023-07-31T10:23:56;2.70;;;1.63;;
26253;SDS011;53339;51.378;0.094;2023-07-31T10:26:28;3.67;;;1.10;;
26253;SDS011;53339;51.378;0.094;2023-07-31T10:28:58;3.92;;;1.52;;
26253;SDS011;53339;51.378;0.094;2023-07-31T10:31:31;3.05;;;1.40;;
26253;SDS011;53339;51.378;0.094;2023-07-31T10:34:04;2.08;;;1.25;;
26253;SDS011;53339;51.378;0.094;2023-07-31T10:36:38;4.28;;;1.50;;
26253;SDS011;53339;51.378;0.094;2023-07-31T10:42:35;2.45;;;1.15;;
26253;SDS011;53339;51.378;0.094;2023-07-31T10:45:14;2.63;;;1.25;;
26253;SDS011;53339;51.378;0.094;2023-07-31T10:48:00;4.13;;;1.20;;
26253;SDS011;53339;51.378;0.094;2023-07-31T10:50:32;2.40;;;1.10;;
26253;SDS011;53339;51.378;0.094;2023-07-31T10:53:09;3.38;;;1.40;;
26253;SDS011;53339;51.378;0.094;2023-07-31T10:56:13;2.45;;;1.20;;
26253;SDS011;53339;51.378;0.094;2023-07-31T10:58:46;3.08;;;1.80;;
26253;SDS011;53339;51.378;0.094;2023-07-31T11:01:53;4.88;;;1.45;;
26253;SDS011;53339;51.378;0.094;2023-07-31T11:04:31;3.22;;;1.67;;
26253;SDS011;53339;51.378;0.094;2023-07-31T11:07:01;3.35;;;1.52;;
26253;SDS011;53339;51.378;0.094;2023-07-31T11:09:35;4.07;;;1.30;;
26253;SDS011;53339;51.378;0.094;2023-07-31T11:12:07;2.30;;;1.38;;
26253;SDS011;53339;51.378;0.094;2023-07-31T11:14:40;3.63;;;1.65;;
26253;SDS011;53339;51.378;0.094;2023-07-31T11:17:13;2.95;;;1.42;;
26253;SDS011;53339;51.378;0.094;2023-07-31T11:19:48;6.53;;;1.60;;
26253;SDS011;53339;51.378;0.094;2023-07-31T11:22:18;2.95;;;1.15;;
26253;SDS011;53339;51.378;0.094;2023-07-31T11:24:46;2.83;;;1.30;;
26253;SDS011;53339;51.378;0.094;2023-07-31T11:27:18;3.88;;;1.63;;
26253;SDS011;53339;51.378;0.094;2023-07-31T11:29:50;1.85;;;1.23;;
26253;SDS011;53339;51.378;0.094;2023-07-31T11:32:20;1.73;;;1.15;;
26253;SDS011;53339;51.378;0.094;2023-07-31T11:34:51;2.75;;;1.70;;
26253;SDS011;53339;51.378;0.094;2023-07-31T11:37:22;2.28;;;1.25;;
26253;SDS011;53339;51.378;0.094;2023-07-31T11:40:01;2.00;;;1.42;;
26253;SDS011;53339;51.378;0.094;2023-07-31T11:42:30;3.17;;;1.25;;
26253;SDS011;53339;51.378;0.094;2023-07-31T11:45:01;3.80;;;1.73;;
26253;SDS011;53339;51.378;0.094;2023-07-31T11:47:32;3.03;;;1.13;;
26253;SDS011;53339;51.378;0.094;2023-07-31T11:50:10;2.78;;;1.40;;
26253;SDS011;53339;51.378;0.094;2023-07-31T11:52:43;2.85;;;1.35;;
26253;SDS011;53339;51.378;0.094;2023-07-31T11:55:13;3.08;;;1.20;;
26253;SDS011;53339;51.378;0.094;2023-07-31T11:57:46;3.03;;;1.20;;
26253;SDS011;53339;51.378;0.094;2023-07-31T12:00:15;3.70;;;1.05;;
26253;SDS011;53339;51.378;0.094;2023-07-31T12:02:48;3.03;;;1.20;;
26253;SDS011;53339;51.378;0.094;2023-07-31T12:05:25;4.75;;;1.42;;
26253;SDS011;53339;51.378;0.094;2023-07-31T12:08:16;2.38;;;1.17;;
26253;SDS011;53339;51.378;0.094;2023-07-31T12:10:47;3.70;;;1.67;;
26253;SDS011;53339;51.378;0.094;2023-07-31T12:13:34;3.85;;;1.48;;
26253;SDS011;53339;51.378;0.094;2023-07-31T12:16:07;4.03;;;1.63;;
26253;SDS011;53339;51.378;0.094;2023-07-31T12:18:38;3.00;;;1.30;;
26253;SDS011;53339;51.378;0.094;2023-07-31T12:21:07;4.63;;;1.65;;
26253;SDS011;53339;51.378;0.094;2023-07-31T12:23:39;3.42;;;1.42;;
26253;SDS011;53339;51.378;0.094;2023-07-31T12:26:15;3.08;;;1.38;;
26253;SDS011;53339;51.378;0.094;2023-07-31T12:28:45;2.85;;;1.20;;
26253;SDS011;53339;51.378;0.094;2023-07-31T12:31:16;3.45;;;1.20;;
26253;SDS011;53339;51.378;0.094;2023-07-31T12:33:48;3.75;;;1.63;;
26253;SDS011;53339;51.378;0.094;2023-07-31T12:36:22;3.35;;;1.85;;
26253;SDS011;53339;51.378;0.094;2023-07-31T12:38:54;4.10;;;1.13;;
26253;SDS011;53339;51.378;0.094;2023-07-31T12:41:30;3.53;;;1.65;;
26253;SDS011;53339;51.378;0.094;2023-07-31T12:43:59;2.80;;;1.20;;
26253;SDS011;53339;51.378;0.094;2023-07-31T12:46:34;3.40;;;2.00;;
26253;SDS011;53339;51.378;0.094;2023-07-31T12:49:11;3.90;;;1.50;;
26253;SDS011;53339;51.378;0.094;2023-07-31T12:51:40;5.82;;;2.45;;
26253;SDS011;53339;51.378;0.094;2023-07-31T12:54:10;3.05;;;1.45;;
26253;SDS011;53339;51.378;0.094;2023-07-31T12:56:42;2.13;;;1.27;;
26253;SDS011;53339;51.378;0.094;2023-07-31T13:01:41;4.00;;;1.77;;
26253;SDS011;53339;51.378;0.094;2023-07-31T13:04:14;4.70;;;1.15;;
26253;SDS011;53339;51.378;0.094;2023-07-31T13:06:42;3.97;;;1.45;;
26253;SDS011;53339;51.378;0.094;2023-07-31T13:09:10;5.18;;;2.08;;
26253;SDS011;53339;51.378;0.094;2023-07-31T13:11:42;4.72;;;1.45;;
26253;SDS011;53339;51.378;0.094;2023-07-31T13:14:10;4.78;;;1.77;;
26253;SDS011;53339;51.378;0.094;2023-07-31T13:16:42;2.55;;;1.33;;
26253;SDS011;53339;51.378;0.094;2023-07-31T13:19:11;5.28;;;1.75;;
26253;SDS011;53339;51.378;0.094;2023-07-31T13:21:43;4.40;;;1.58;;
26253;SDS011;53339;51.378;0.094;2023-07-31T13:24:12;4.03;;;1.92;;
26253;SDS011;53339;51.378;0.094;2023-07-31T13:26:41;4.38;;;1.88;;
26253;SDS011;53339;51.378;0.094;2023-07-31T13:29:11;6.25;;;1.60;;
26253;SDS011;53339;51.378;0.094;2023-07-31T13:31:43;4.85;;;1.83;;
26253;SDS011;53339;51.378;0.094;2023-07-31T13:34:12;4.50;;;2.40;;
26253;SDS011;53339;51.378;0.094;2023-07-31T13:36:41;5.68;;;2.25;;
26253;SDS011;53339;51.378;0.094;2023-07-31T13:39:10;7.78;;;2.47;;
26253;SDS011;53339;51.378;0.094;2023-07-31T13:41:40;4.95;;;2.03;;
26253;SDS011;53339;51.378;0.094;2023-07-31T13:44:09;4.80;;;1.92;;
26253;SDS011;53339;51.378;0.094;2023-07-31T13:46:43;4.57;;;1.83;;
26253;SDS011;53339;51.378;0.094;2023-07-31T13:51:50;6.63;;;2.40;;
26253;SDS011;53339;51.378;0.094;2023-07-31T13:54:19;5.65;;;1.85;;
26253;SDS011;53339;51.378;0.094;2023-07-31T13:56:53;7.72;;;2.50;;
26253;SDS011;53339;51.378;0.094;2023-07-31T13:59:20;6.15;;;2.65;;
26253;SDS011;53339;51.378;0.094;2023-07-31T14:01:55;9.27;;;3.03;;
26253;SDS011;53339;51.378;0.094;2023-07-31T14:04:30;12.82;;;3.15;;
26253;SDS011;53339;51.378;0.094;2023-07-31T14:07:00;6.03;;;3.47;;
26253;SDS011;53339;51.378;0.094;2023-07-31T14:09:35;7.90;;;3.78;;
26253;SDS011;53339;51.378;0.094;2023-07-31T14:12:03;8.40;;;4.65;;
26253;SDS011;53339;51.378;0.094;2023-07-31T14:14:35;7.40;;;2.40;;
26253;SDS011;53339;51.378;0.094;2023-07-31T14:17:08;10.15;;;5.03;;
26253;SDS011;53339;51.378;0.094;2023-07-31T14:19:36;8.50;;;3.13;;
26253;SDS011;53339;51.378;0.094;2023-07-31T14:22:10;6.72;;;2.97;;
26253;SDS011;53339;51.378;0.094;2023-07-31T14:24:39;6.60;;;3.10;;
26253;SDS011;53339;51.378;0.094;2023-07-31T14:27:10;5.03;;;3.10;;
26253;SDS011;53339;51.378;0.094;2023-07-31T14:29:39;9.60;;;4.78;;
26253;SDS011;53339;51.378;0.094;2023-07-31T14:32:18;7.78;;;2.47;;
26253;SDS011;53339;51.378;0.094;2023-07-31T14:34:47;7.97;;;2.97;;
26253;SDS011;53339;51.378;0.094;2023-07-31T14:37:16;7.50;;;3.08;;
26253;SDS011;53339;51.378;0.094;2023-07-31T14:39:44;8.75;;;3.13;;
26253;SDS011;53339;51.378;0.094;2023-07-31T14:42:14;6.60;;;4.15;;
26253;SDS011;53339;51.378;0.094;2023-07-31T14:44:43;8.02;;;4.63;;
26253;SDS011;53339;51.378;0.094;2023-07-31T14:47:11;8.02;;;4.60;;
26253;SDS011;53339;51.378;0.094;2023-07-31T14:49:43;6.13;;;3.10;;
26253;SDS011;53339;51.378;0.094;2023-07-31T14:52:10;9.40;;;2.80;;
26253;SDS011;53339;51.378;0.094;2023-07-31T14:54:39;5.47;;;2.70;;
26253;SDS011;53339;51.378;0.094;2023-07-31T14:57:10;7.63;;;3.47;;
26253;SDS011;53339;51.378;0.094;2023-07-31T14:59:38;5.28;;;2.17;;
26253;SDS011;53339;51.378;0.094;2023-07-31T15:02:06;6.10;;;2.85;;
26253;SDS011;53339;51.378;0.094;2023-07-31T15:04:48;7.50;;;2.38;;
26253;SDS011;53339;51.378;0.094;2023-07-31T15:07:16;7.05;;;2.78;;
26253;SDS011;53339;51.378;0.094;2023-07-31T15:09:45;6.53;;;2.58;;
26253;SDS011;53339;51.378;0.094;2023-07-31T15:12:15;9.63;;;3.05;;
26253;SDS011;53339;51.378;0.094;2023-07-31T15:14:45;4.75;;;1.92;;
26253;SDS011;53339;51.378;0.094;2023-07-31T15:17:16;6.55;;;3.10;;
26253;SDS011;53339;51.378;0.094;2023-07-31T15:22:27;6.43;;;2.50;;
26253;SDS011;53339;51.378;0.094;2023-07-31T15:24:56;5.63;;;1.85;;
26253;SDS011;53339;51.378;0.094;2023-07-31T15:27:25;7.05;;;3.03;;
26253;SDS011;53339;51.378;0.094;2023-07-31T15:30:01;7.68;;;2.70;;
26253;SDS011;53339;51.378;0.094;2023-07-31T15:32:33;7.93;;;2.30;;
26253;SDS011;53339;51.378;0.094;2023-07-31T15:35:10;9.25;;;2.13;;
26253;SDS011;53339;51.378;0.094;2023-07-31T15:37:42;12.48;;;2.53;;
26253;SDS011;53339;51.378;0.094;2023-07-31T15:40:15;8.02;;;2.63;;
26253;SDS011;53339;51.378;0.094;2023-07-31T15:42:45;7.68;;;2.40;;
26253;SDS011;53339;51.378;0.094;2023-07-31T15:45:14;9.38;;;3.05;;
26253;SDS011;53339;51.378;0.094;2023-07-31T15:47:43;7.82;;;4.55;;
26253;SDS011;53339;51.378;0.094;2023-07-31T15:50:16;7.53;;;2.47;;